Scroll down
FLIGHT INFORMATION
Alaska Airlines

ASA7004

At Arrival Gate

PANC
 PAKT
DATE: 2020-08-18
GATE:  -
GATE DEPARTURE: 12:42
TAKEOFF: 12:56
DATE: 2020-08-18
GATE:  -
LANDING: 14:28
GATE ARRIVAL: 14:32
FLIGHT DATA
Speed: 
478 kts
Altitude: 
37,007 ft
Stage Length: 
671.6 nm
Block Time: 
1.8 hrs
Flight Time: 
1.5 hrs
Fuel Used: 
10,183 lb
Cleared Route: PANC DOOZI PAKT
TRACK DATA
50,000 ft 1,000 kts
AIRCRAFT INFO AND CUMULATIVE STATS
Aircraft Type: 
B737BDSF
Registration: 
SELCAL: 
MSN/LN: 
30794 / 796
Operator: 
Total Flights: 
13
Total Block Time: 
20.2 hrs
Total Flight Time: 
17.8 hrs
Total Fuel Used: 
104,042 lb
DATALINK LOG | Newest first | Current as of: 2022-09-30 02:24:51
LABEL SEQUENCE CONTENT Dn/Up
QD115914:32 6.7▼ Dn
QC075614:28▼ Dn
2U5616PAKT 080815Z AUTO 14004KT 10SM FEW008 BKN020 OVC070 13/12 A3002 RMK AO2 T01280122 TSNO▲ Up
2S3529PAKT▼ Dn
GA3528ADVANCED GATE ASSIGNMENTS NOT YET AVAILABLE AT THIS AIRPORT▲ Up
GR3528PAKT --:-- MAAS YP/UM WCHR/S/C HI-VAL NO DIPL/VIP NO▼ Dn
QB353412:56▼ Dn
QA222112:42 16.9▼ Dn
5U1612PAKT 081344Z 14008KT 10SM -SHRA SCT025 OVC050 13/12 A3002▲ Up
5S1745PAKT▼ Dn
A31653CLEARED TO PAKT VIA DOOZI. SQUAWK .▲ Up
B31643PANC PAKT ASA7004 N627AS B ▼ Dn
Q01340[LINK ACK]▲ Up
Q01340[LINK TEST]▼ Dn


AIRCRAFT HISTORY
FLIGHT DATE FLIGHT NO. ORIGIN DESTINATION CLEARED ROUTE BLOCK TIME FLIGHT TIME FUEL USED PILOT
2021-03-28ASA328PASM PASI PASM SMA ANI SQA AKGAS ENA MDO SALIS PASI2.1 hrs1.9 hrs10,565 lbKevin Hall
2021-03-27ASA327PASC PASM PASC SCC ATAGO SMA PASM1.7 hrs1.6 hrs9,069 lbKevin Hall
2021-03-25ASA325PAFA PASC PAFA DRRLL CQR BIXER ARCON SCC PASC1.2 hrs1 hrs5,861 lbKevin Hall
2021-03-25ASA325PAJN PAFA PAJN ASORT FAI PAFA1.9 hrs1.8 hrs9,515 lbKevin Hall
2021-03-24ASA324PANC PAJN PANC ASORT PAJN1.4 hrs1.2 hrs6,978 lbKevin Hall
2021-03-24ASA324PAFA PANC PAFA PUYVO PANC0.9 hrs0.8 hrs4,426 lbKevin Hall
2021-03-07ASA307PASI PAFA PASI SSR OCC GCR ENN PAFA1.9 hrs1.8 hrs8,933 lbEphedrin
2020-12-23ASA1223PAJN PASI PAJN SSR CLUCK PASI0.6 hrs0.4 hrs3,005 lbKevin Hall
2020-09-19ASA4394KSEA PAJN KSEA SEA ORCUS CFQWB YYJ DUGGS HANRY CFSTF ANN GESTI DOOZI LVD HOODS SSR PAJN2.3 hrs2.1 hrs11,549 lbMike Dryden
2020-08-18ASA4813PASI KSEA PASI SIT BKA FLIPS UDENE ANN CFSTF HANRY DUGGS PRYCE YZT ROYST ARRUE YYJ KSEA2.1 hrs2 hrs10,969 lbMichael Backes
2020-08-18PAKT PASI 1 hrs0.8 hrs6,301 lbKurt Kalbfleisch
2020-08-18ASA7004PANC PAKT PANC DOOZI PAKT1.8 hrs1.5 hrs10,183 lbKurt Kalbfleisch
2020-08-18ASA7014PABE PANC PABE GASTO PANC1.2 hrs1 hrs6,687 lbKurt Kalbfleisch